Thunder radar more information blitzortung!


Radar de pluja more information rain snow radar


Visita la nostra xarxa de llocs de meteo:

Template documentation
and downloads

And another site



No particular awareness of the weather is required.    There are no Weather-warnings

Pagina Historial Weather Underground text

Diari Resum Juliol 2, 2017 Unitats:  Imperial    Mètric   Tant
« Previous Dia
SegĂźent Dia »
Diari Setmana Mensual Anual Personalitzada
  Maxima: Minima: Media:
Temperatura: 89.1 °F 62.4 °F 77.5 °F
Punt de rosada: 53.2 °F 42.6 °F 48.4 °F
Humitat: 68 % 25 % 38 %
Wind Speed: 13.8 mph 0 mph 4.2 mph
RĂ fegues de vent: 13.8 mph - -
Vent:- - SSE
Pression baro: 30.2 in 30.1 in -
Precipitacions: 0 in    
Historical Graphs
 
 
Dades de taula per Juliol 2, 2017
Temps Temperatura Punt de rosada Pression baro Vent Wind Speed RĂ fegues de vent Humitat Rainfall Rate (Hourly)
00:03 66.2 °F 46.6 °F 30.1 in Calm     49 % 0 in
00:08 66 °F 46.8 °F 30.1 in WNW 1.4 mph   50 % 0 in
00:13 65.8 °F 46.8 °F 30.2 in Calm     50 % 0 in
05:25 68.9 °F 48.4 °F 30.2 in NE 3 mph 4 mph 48 % 0 in
05:35 70.9 °F 49.6 °F 30.2 in NE 2 mph 4 mph 47 % 0 in
10:42 71.1 °F 49.8 °F 30.2 in NNE 3.5 mph 3.5 mph 47 % 0 in
10:47 70.9 °F 49.6 °F 30.2 in East 4.6 mph 4.6 mph 47 % 0 in
10:52 71.1 °F 49.3 °F 30.2 in NE 5.8 mph 5.8 mph 46 % 0 in
10:57 71.4 °F 49.6 °F 30.2 in NW 5.8 mph 5.8 mph 46 % 0 in
11:02 71.6 °F 49.1 °F 30.2 in NW 4.6 mph 4.6 mph 45 % 0 in
11:07 71.8 °F 49.3 °F 30.2 in ESE 3.8 mph 3.8 mph 45 % 0 in
11:13 72.5 °F 49.8 °F 30.2 in North 3.8 mph 3.8 mph 45 % 0 in
11:17 73.2 °F 50.5 °F 30.2 in WNW 2.3 mph 2.3 mph 45 % 0 in
11:22 73.4 °F 50.2 °F 30.2 in NE 5.6 mph 5.6 mph 44 % 0 in
11:27 73.4 °F 50.2 °F 30.2 in NNE 5.9 mph 5.9 mph 44 % 0 in
11:32 73.4 °F 50.2 °F 30.2 in NNE 5.8 mph 5.8 mph 44 % 0 in
11:33 73.4 °F 50.2 °F 30.2 in NE 5.9 mph 5.9 mph 44 % 0 in
11:38 73.4 °F 49.5 °F 30.2 in NNE 5.8 mph 5.8 mph 43 % 0 in
11:43 74.1 °F 50.2 °F 30.2 in NNE 6.9 mph 6.9 mph 43 % 0 in
11:48 74.3 °F 49.6 °F 30.2 in ESE 4.6 mph 4.6 mph 42 % 0 in
11:53 75 °F 51.1 °F 30.2 in ENE 4.6 mph 4.6 mph 43 % 0 in
11:58 75.2 °F 50.5 °F 30.2 in WSW 2.6 mph 2.6 mph 42 % 0 in
12:03 75.9 °F 51.3 °F 30.2 in NE 5.8 mph 5.8 mph 42 % 0 in
12:08 75.9 °F 51.3 °F 30.2 in NE 3.1 mph 3.1 mph 42 % 0 in
12:13 75.9 °F 50.5 °F 30.1 in NE 6.9 mph 6.9 mph 41 % 0 in
12:18 76.3 °F 50.7 °F 30.1 in East 6.4 mph 6.4 mph 41 % 0 in
12:23 75.6 °F 49.5 °F 30.1 in East 5.8 mph 5.8 mph 40 % 0 in
12:28 77.2 °F 51.1 °F 30.1 in NW 4.6 mph 4.6 mph 40 % 0 in
12:33 79.3 °F 52.2 °F 30.1 in ESE 3.3 mph 3.3 mph 39 % 0 in
12:38 80.2 °F 53.1 °F 30.1 in SSW 2.3 mph 2.3 mph 39 % 0 in
12:43 81.3 °F 53.2 °F 30.2 in South 3.8 mph 3.8 mph 38 % 0 in
12:48 81.1 °F 52.3 °F 30.2 in SW 3.3 mph 3.3 mph 37 % 0 in
12:53 81.7 °F 52.9 °F 30.2 in NNW 5.8 mph 5.8 mph 37 % 0 in
12:58 81.1 °F 51.6 °F 30.1 in SW 4.6 mph 4.6 mph 36 % 0 in
13:03 81.5 °F 51.3 °F 30.1 in SW 5.8 mph 5.8 mph 35 % 0 in
13:08 81.5 °F 51.3 °F 30.1 in WNW 4.3 mph 4.3 mph 35 % 0 in
13:13 81.5 °F 50.4 °F 30.1 in SW 3.3 mph 3.3 mph 34 % 0 in
13:18 81.9 °F 49.8 °F 30.1 in West 6.9 mph 6.9 mph 33 % 0 in
13:23 81.9 °F 49.1 °F 30.1 in SSW 5.8 mph 5.8 mph 32 % 0 in
13:28 82.4 °F 48.7 °F 30.1 in SSW 4.6 mph 4.6 mph 31 % 0 in
13:33 82.4 °F 48.7 °F 30.1 in ENE 4.6 mph 4.6 mph 31 % 0 in
13:38 82.6 °F 48 °F 30.1 in West 5.8 mph 5.8 mph 30 % 0 in
13:43 83.5 °F 48.7 °F 30.1 in West 5.4 mph 5.4 mph 30 % 0 in
13:48 83.5 °F 48.7 °F 30.1 in WSW 4.6 mph 4.6 mph 30 % 0 in
13:53 82.9 °F 47.5 °F 30.1 in ESE 4.6 mph 4.6 mph 29 % 0 in
13:58 83.3 °F 48.6 °F 30.1 in NE 4 mph 4 mph 30 % 0 in
14:03 84 °F 48.4 °F 30.1 in West 3.5 mph 3.5 mph 29 % 0 in
14:08 83.5 °F 47.8 °F 30.1 in West 4.6 mph 4.6 mph 29 % 0 in
14:13 84.4 °F 47.7 °F 30.1 in WSW 5.8 mph 5.8 mph 28 % 0 in
14:18 84.6 °F 47.8 °F 30.1 in SW 4.6 mph 4.6 mph 28 % 0 in
14:23 85.1 °F 48.4 °F 30.1 in SSW 3.5 mph 3.5 mph 28 % 0 in
14:28 85.6 °F 47.8 °F 30.1 in West 3.5 mph 3.5 mph 27 % 0 in
14:33 84.7 °F 47.1 °F 30.1 in South 2.3 mph 2.3 mph 27 % 0 in
14:38 84.9 °F 47.1 °F 30.1 in ENE 4.6 mph 4.6 mph 27 % 0 in
14:43 85.3 °F 47.5 °F 30.1 in SW 5.6 mph 5.6 mph 27 % 0 in
14:48 85.8 °F 48 °F 30.1 in SSW 5.8 mph 5.8 mph 27 % 0 in
14:53 83.8 °F 47.1 °F 30.1 in WSW 3.3 mph 3.3 mph 28 % 0 in
14:58 84.6 °F 46.9 °F 30.1 in South 3.5 mph 3.5 mph 27 % 0 in
15:01 85.6 °F 47.8 °F 30.1 in WSW 3.8 mph 3.8 mph 27 % 0 in
15:06 84.4 °F 46.8 °F 30.1 in SW 4.6 mph 4.6 mph 27 % 0 in
15:11 85.3 °F 47.5 °F 30.1 in WSW 3.5 mph 3.5 mph 27 % 0 in
15:16 86.7 °F 48.7 °F 30.1 in WNW 5.8 mph 5.8 mph 27 % 0 in
15:21 87.3 °F 48.2 °F 30.1 in SW 4 mph 4 mph 26 % 0 in
15:26 86.2 °F 47.3 °F 30.1 in ENE 5.8 mph 5.8 mph 26 % 0 in
15:31 86.9 °F 47.8 °F 30.1 in SSE 4.6 mph 4.6 mph 26 % 0 in
15:36 85.6 °F 46.8 °F 30.1 in South 3.5 mph 3.5 mph 26 % 0 in
15:41 86.7 °F 48.7 °F 30.1 in West 6.9 mph 6.9 mph 27 % 0 in
15:46 87.3 °F 48.2 °F 30.1 in SW 3.5 mph 3.5 mph 26 % 0 in
15:51 87.3 °F 48.2 °F 30.1 in North 2.3 mph 2.3 mph 26 % 0 in
15:56 87.8 °F 47.7 °F 30.1 in North 4.6 mph 4.6 mph 25 % 0 in
16:01 88.2 °F 48.9 °F 30.1 in WSW 5.8 mph 5.8 mph 26 % 0 in
16:06 88.3 °F 49.1 °F 30.1 in West 4.6 mph 4.6 mph 26 % 0 in
16:11 88 °F 47.7 °F 30.1 in WSW 5.8 mph 5.8 mph 25 % 0 in
16:16 88.5 °F 49.3 °F 30.1 in West 9.2 mph 9.2 mph 26 % 0 in
16:21 88.7 °F 49.5 °F 30.1 in West 4.9 mph 4.9 mph 26 % 0 in
16:26 89.1 °F 49.6 °F 30.1 in SW 5.8 mph 5.8 mph 26 % 0 in
16:31 87.1 °F 48 °F 30.1 in SW 3.8 mph 3.8 mph 26 % 0 in
16:36 87.8 °F 48.6 °F 30.1 in SW 3.5 mph 3.5 mph 26 % 0 in
16:41 86.9 °F 47.8 °F 30.1 in SW 8.1 mph 8.1 mph 26 % 0 in
16:42 86.9 °F 47.8 °F 30.1 in SSW 10.5 mph 10.5 mph 26 % 0 in
16:47 86.9 °F 47.8 °F 30.1 in SSW 4.6 mph 4.6 mph 26 % 0 in
16:52 86.9 °F 47.8 °F 30.1 in SW 4.6 mph 4.6 mph 26 % 0 in
16:57 87.8 °F 48.6 °F 30.1 in West 9.2 mph 9.2 mph 26 % 0 in
17:02 87.8 °F 48.6 °F 30.1 in South 6.9 mph 6.9 mph 26 % 0 in
17:07 88.3 °F 49.1 °F 30.1 in South 5.8 mph 5.8 mph 26 % 0 in
17:12 87.6 °F 48.6 °F 30.1 in South 8.1 mph 8.1 mph 26 % 0 in
17:17 86.7 °F 47.7 °F 30.1 in SW 10.4 mph 10.4 mph 26 % 0 in
17:22 87.3 °F 48.2 °F 30.1 in SW 5.8 mph 5.8 mph 26 % 0 in
17:27 86 °F 47.1 °F 30.1 in SW 9.2 mph 9.2 mph 26 % 0 in
17:32 86.5 °F 47.7 °F 30.1 in SW 8.1 mph 8.1 mph 26 % 0 in
17:37 86 °F 47.1 °F 30.1 in SW 8.1 mph 8.1 mph 26 % 0 in
17:42 86 °F 47.1 °F 30.1 in SSW 8.1 mph 8.1 mph 26 % 0 in
17:47 86 °F 47.1 °F 30.1 in WSW 13.8 mph 13.8 mph 26 % 0 in
17:48 85.8 °F 46.9 °F 30.1 in SW 9.2 mph 9.2 mph 26 % 0 in
17:53 85.3 °F 46.6 °F 30.1 in South 12.7 mph 12.7 mph 26 % 0 in
17:58 84.7 °F 46 °F 30.1 in SSW 12.7 mph 12.7 mph 26 % 0 in
18:03 84.6 °F 45.9 °F 30.1 in SW 9.2 mph 9.2 mph 26 % 0 in
18:08 84.7 °F 46 °F 30.1 in SW 9.2 mph 9.2 mph 26 % 0 in
18:13 84.7 °F 46 °F 30.1 in SSW 5.8 mph 5.8 mph 26 % 0 in
18:18 84.6 °F 46.9 °F 30.1 in SSW 5.8 mph 5.8 mph 27 % 0 in
18:23 84.6 °F 46.9 °F 30.1 in SW 10.4 mph 10.4 mph 27 % 0 in
18:28 83.5 °F 46 °F 30.1 in SSW 12.7 mph 12.7 mph 27 % 0 in
18:33 83.1 °F 46.6 °F 30.1 in SW 9.2 mph 9.2 mph 28 % 0 in
18:38 82.8 °F 46.2 °F 30.1 in SSE 9.2 mph 9.2 mph 28 % 0 in
18:43 82.4 °F 46 °F 30.1 in SSW 10.4 mph 10.4 mph 28 % 0 in
18:48 82.6 °F 46.2 °F 30.1 in South 5.8 mph 5.8 mph 28 % 0 in
18:53 82.4 °F 46 °F 30.1 in SW 5.8 mph 6.4 mph 28 % 0 in
18:58 82.4 °F 46 °F 30.1 in SSW 5.4 mph 5.4 mph 28 % 0 in
19:03 81.9 °F 45.7 °F 30.1 in SSW 5.8 mph 5.8 mph 28 % 0 in
19:08 81.9 °F 45.7 °F 30.1 in West 2.3 mph 2.3 mph 28 % 0 in
19:10 68.9 °F 52.2 °F 30.2 in NE 2 mph 2 mph 55 % 0 in
19:13 81.3 °F 45.1 °F 30.1 in SSW 4.6 mph 4.6 mph 28 % 0 in
19:18 82 °F 45.7 °F 30.1 in SW 4.6 mph 4.6 mph 28 % 0 in
19:20 68.7 °F 52 °F 30.2 in NE 1 mph 3 mph 55 % 0 in
19:23 81.7 °F 45.3 °F 30.1 in South 3.5 mph 3.5 mph 28 % 0 in
19:28 81.5 °F 45.1 °F 30.1 in SSW 7.1 mph 7.1 mph 28 % 0 in
19:30 68.5 °F 52.2 °F 30.2 in NE 1 mph 2 mph 56 % 0 in
19:33 81 °F 44.8 °F 30.1 in SW 3.5 mph 3.5 mph 28 % 0 in
19:38 81.1 °F 45 °F 30.1 in SW 4 mph 4 mph 28 % 0 in
19:40 68.5 °F 52.2 °F 30.2 in NE 1 mph 2 mph 56 % 0 in
19:43 81 °F 44.8 °F 30.1 in SSE 4.6 mph 4.6 mph 28 % 0 in
19:48 80.6 °F 44.4 °F 30.1 in SW 5.8 mph 5.8 mph 28 % 0 in
19:50 68.4 °F 52 °F 30.2 in NE 1 mph 3 mph 56 % 0 in
19:53 80.2 °F 44.2 °F 30.1 in West 4.6 mph 4.6 mph 28 % 0 in
19:58 80.2 °F 44.2 °F 30.1 in West 2.4 mph 2.4 mph 28 % 0 in
20:00 68 °F 52.2 °F 30.2 in NNE 1 mph 2 mph 57 % 0 in
20:03 79.9 °F 43.9 °F 30.1 in SSW 5.8 mph 5.8 mph 28 % 0 in
20:08 79.5 °F 44.4 °F 30.1 in SW 5.8 mph 5.8 mph 29 % 0 in
20:10 67.8 °F 52.5 °F 30.2 in NE 1 mph 3 mph 58 % 0 in
20:13 79.5 °F 44.4 °F 30.1 in SSW 4.6 mph 4.6 mph 29 % 0 in
20:18 79.2 °F 44.2 °F 30.1 in SSW 8.1 mph 8.1 mph 29 % 0 in
20:20 67.6 °F 52.9 °F 30.2 in Calm   2 mph 59 % 0 in
20:23 78.8 °F 43.9 °F 30.1 in SW 2.9 mph 2.9 mph 29 % 0 in
20:28 78.4 °F 43.5 °F 30.1 in WSW 3.6 mph 3.6 mph 29 % 0 in
20:30 67.6 °F 52.9 °F 30.2 in ENE 2 mph 2 mph 59 % 0 in
20:33 78.3 °F 43.3 °F 30.1 in South 5.8 mph 5.8 mph 29 % 0 in
20:38 77.7 °F 43 °F 30.1 in SSW 4.6 mph 4.6 mph 29 % 0 in
20:40 67.5 °F 52.5 °F 30.2 in ENE 1 mph 2 mph 59 % 0 in
20:43 77.5 °F 42.8 °F 30.1 in SW 2.6 mph 2.6 mph 29 % 0 in
20:48 77.4 °F 42.6 °F 30.1 in SW 4.6 mph 4.6 mph 29 % 0 in
20:50 67.3 °F 52.5 °F 30.2 in NE 1 mph 2 mph 59 % 0 in
20:53 77 °F 43.2 °F 30.1 in WSW 3.5 mph 3.5 mph 30 % 0 in
20:58 76.6 °F 43.7 °F 30.1 in SW 3.8 mph 3.8 mph 31 % 0 in
21:00 67.1 °F 52.3 °F 30.2 in NE 1 mph 2 mph 59 % 0 in
21:03 76.3 °F 43.3 °F 30.1 in WSW 4.6 mph 4.6 mph 31 % 0 in
21:08 75.9 °F 43.2 °F 30.1 in SW 4.6 mph 4.6 mph 31 % 0 in
21:10 66.9 °F 52.5 °F 30.2 in NE 1 mph 2 mph 60 % 0 in
21:13 75.6 °F 43.5 °F 30.1 in SW 4.6 mph 4.6 mph 32 % 0 in
21:18 75.4 °F 43.5 °F 30.1 in WSW 3.5 mph 3.5 mph 32 % 0 in
21:20 66.7 °F 52.9 °F 30.2 in NE 1 mph 1 mph 61 % 0 in
21:23 75 °F 43.2 °F 30.1 in SSW 2.6 mph 2.6 mph 32 % 0 in
21:28 74.8 °F 43.9 °F 30.1 in West 4.6 mph 4.6 mph 33 % 0 in
21:30 66.2 °F 52 °F 30.2 in Calm     60 % 0 in
21:33 74.5 °F 43.5 °F 30.1 in West 3.5 mph 3.5 mph 33 % 0 in
21:38 74.1 °F 43.2 °F 30.1 in SW 2.4 mph 2.4 mph 33 % 0 in
21:40 65.7 °F 52.3 °F 30.2 in Calm   2 mph 62 % 0 in
21:43 73.8 °F 43.5 °F 30.1 in SW 2.3 mph 2.3 mph 34 % 0 in
21:48 73.6 °F 43.5 °F 30.1 in WSW 2.3 mph 2.3 mph 34 % 0 in
21:50 65.5 °F 52.5 °F 30.2 in Calm     63 % 0 in
21:53 73.2 °F 44.8 °F 30.1 in SW 1.6 mph   36 % 0 in
21:58 72.9 °F 45.1 °F 30.1 in SW 2.3 mph 2.3 mph 37 % 0 in
22:00 65.1 °F 52.2 °F 30.2 in Calm     63 % 0 in
22:03 72.7 °F 45 °F 30.1 in Calm     37 % 0 in
22:08 72.3 °F 45.3 °F 30.1 in SSE 1.2 mph 1.2 mph 38 % 0 in
22:10 64.6 °F 51.6 °F 30.2 in Calm   2 mph 63 % 0 in
22:13 72.1 °F 45.1 °F 30.1 in Calm     38 % 0 in
22:18 72.1 °F 45.1 °F 30.1 in WNW 1.2 mph   38 % 0 in
22:20 64.2 °F 51.8 °F 30.2 in Calm     64 % 0 in
22:23 72.1 °F 45.9 °F 30.1 in NE 4.6 mph 4.6 mph 39 % 0 in
22:28 72.1 °F 47.1 °F 30.2 in NNE 3.5 mph 3.5 mph 41 % 0 in
22:30 64.2 °F 51.8 °F 30.2 in Calm     64 % 0 in
22:33 71.8 °F 47.5 °F 30.2 in North 2.3 mph 2.3 mph 42 % 0 in
22:38 71.6 °F 48.6 °F 30.2 in East 3.5 mph 3.5 mph 44 % 0 in
22:40 64 °F 51.6 °F 30.2 in Calm     64 % 0 in
22:43 71.2 °F 49.5 °F 30.2 in ENE 2.3 mph 2.3 mph 46 % 0 in
22:48 71.1 °F 49.8 °F 30.2 in NE 2.4 mph 2.4 mph 47 % 0 in
22:53 70.7 °F 50 °F 30.2 in ENE 3.5 mph 3.5 mph 48 % 0 in
22:58 70.5 °F 49.8 °F 30.2 in East 2.3 mph 2.3 mph 48 % 0 in
23:00 63.7 °F 51.3 °F 30.1 in NE 2 mph 2 mph 64 % 0 in
23:03 70.3 °F 50.4 °F 30.2 in East 2.3 mph 2.3 mph 49 % 0 in
23:08 70.3 °F 50.7 °F 30.2 in ENE 2.3 mph 2.3 mph 50 % 0 in
23:10 63.5 °F 51.4 °F 30.1 in Calm   2 mph 65 % 0 in
23:13 70.2 °F 50.5 °F 30.2 in ENE 2 mph 2 mph 50 % 0 in
23:18 70 °F 51.1 °F 30.2 in East 3.5 mph 3.5 mph 51 % 0 in
23:20 63.3 °F 51.3 °F 30.2 in Calm   2 mph 65 % 0 in
23:23 70 °F 51.1 °F 30.2 in ENE 2.3 mph 2.3 mph 51 % 0 in
23:28 69.6 °F 51.3 °F 30.2 in NNE 2.3 mph 2.3 mph 52 % 0 in
23:30 63 °F 51.1 °F 30.1 in Calm   1 mph 65 % 0 in
23:33 69.6 °F 51.6 °F 30.2 in ENE 3.3 mph 3.3 mph 53 % 0 in
23:38 69.4 °F 51.6 °F 30.2 in NE 2.3 mph 2.3 mph 53 % 0 in
23:40 62.6 °F 51.1 °F 30.1 in Calm     66 % 0 in
23:43 69.3 °F 51.4 °F 30.2 in NE 2.3 mph 2.3 mph 53 % 0 in
23:48 69.3 °F 51.4 °F 30.2 in ENE 2 mph 2 mph 53 % 0 in
23:50 62.4 °F 51.6 °F 30.2 in Calm   1 mph 68 % 0 in
23:53 69.1 °F 51.6 °F 30.2 in NNE 2.3 mph 2.3 mph 54 % 0 in
23:58 69.1 °F 51.6 °F 30.2 in NE 2.3 mph 2.3 mph 54 % 0 in
Meteo Sesrovires
Elogis d' Weather Underground - 3.5 mb

Guio original per  Jim McMurry - jmcmurry@mwt.net Adaptat per a la plantilla per  Wim van der Kuil - Leuven-Template.eu

Trobareu la nostra informacio del temps tambe a:

Weather Underground

AWEKAS